Flight Number: AVA6191 Duration: 5:30
Departure: St. Peterburg (ULLI) at 17:00 Distance: 2322 Nm
Arrival: Dubai Intl Airport (OMDB) at 23:30 Equipment: B777

Weather Information
St. Peterburg, Russia (ULLI) 59-58N 030-18E 6M Jan 24, 2021 - 10:00 AM EST / 2021.01.24 1500 UTC
Wind: from the SSE (160 degrees) at 7 MPH (6 KT):0
Visibility: greater than 7 mile(s):0
Sky conditions: overcast Temperature: 35 F (2 C)
Windchill: 28 F (-2 C):1 Dew Point: 33 F (1 C) Relative Humidity: 93% Pressure (altimeter): 29.53 in. Hg (1000 hPa)
ob: ULLI 241500Z 16003MPS 9999 OVC006 02/01 Q1000 R10L/290050 NOSIG RMK OBST OBSC cycle: 15
Sunrise: 06:33 Sunset: 13:49 (UTC)

Dubai International Airport, United Arab Emirates (OMDB) 25-15N 055-20E 5M Jan 24, 2021 - 10:00 AM EST / 2021.01.24 1500 UTC
Wind: from the N (010 degrees) at 10 MPH (9 KT):0
Visibility: greater than 7 mile(s):0 Temperature: 69 F (21 C) Dew Point: 44 F (7 C) Relative Humidity: 40% Pressure (altimeter): 30.09 in. Hg (1019 hPa)
ob: OMDB 241500Z 01009KT CAVOK 21/07 Q1019 NOSIG cycle: 15
Sunrise: 03:06 Sunset: 13:54 (UTC)

TAF:2021/01/24 12:03 TAF OMDB 241100Z 2412/2518 34010KT 7000 NSC BECMG 2416/2418 09005KT BECMG 2507/2509 30010KT BECMG 2516/2518 11005KT

This route has never been flown.

Route map